sensor_id;sensor_type;location;lat;lon;timestamp;pressure;altitude;pressure_sealevel;temperature;humidity
47750;BME280;49810;48.160;10.812;2022-11-14T00:00:32;95293.47;;;3.32;95.13
47750;BME280;49810;48.160;10.812;2022-11-14T00:03:18;95311.13;;;3.30;95.07
47750;BME280;49810;48.160;10.812;2022-11-14T00:06:06;95310.75;;;3.33;95.52
47750;BME280;49810;48.160;10.812;2022-11-14T00:08:55;95312.75;;;3.31;95.29
47750;BME280;49810;48.160;10.812;2022-11-14T00:11:41;95327.63;;;3.31;95.40
47750;BME280;49810;48.160;10.812;2022-11-14T00:14:28;95328.44;;;3.31;95.42
47750;BME280;49810;48.160;10.812;2022-11-14T00:17:15;95318.38;;;3.28;95.57
47750;BME280;49810;48.160;10.812;2022-11-14T00:20:03;95314.75;;;3.29;95.42
47750;BME280;49810;48.160;10.812;2022-11-14T00:22:50;95319.97;;;3.29;95.58
47750;BME280;49810;48.160;10.812;2022-11-14T00:25:38;95320.97;;;3.28;95.37
47750;BME280;49810;48.160;10.812;2022-11-14T00:28:25;95324.00;;;3.32;95.32
47750;BME280;49810;48.160;10.812;2022-11-14T00:31:12;95325.38;;;3.28;95.56
47750;BME280;49810;48.160;10.812;2022-11-14T00:33:58;95322.19;;;3.26;95.58
47750;BME280;49810;48.160;10.812;2022-11-14T00:36:45;95308.50;;;3.24;95.28
47750;BME280;49810;48.160;10.812;2022-11-14T00:39:32;95311.72;;;3.26;95.38
47750;BME280;49810;48.160;10.812;2022-11-14T00:42:20;95301.28;;;3.19;95.40
47750;BME280;49810;48.160;10.812;2022-11-14T00:45:07;95303.06;;;3.19;95.35
47750;BME280;49810;48.160;10.812;2022-11-14T00:47:53;95312.94;;;3.23;95.35
47750;BME280;49810;48.160;10.812;2022-11-14T00:50:41;95307.91;;;3.22;95.20
47750;BME280;49810;48.160;10.812;2022-11-14T00:53:28;95317.75;;;3.26;95.29
47750;BME280;49810;48.160;10.812;2022-11-14T00:56:14;95308.31;;;3.25;95.19
47750;BME280;49810;48.160;10.812;2022-11-14T00:59:02;95298.84;;;3.11;95.07
47750;BME280;49810;48.160;10.812;2022-11-14T01:01:49;95286.19;;;3.21;94.70
47750;BME280;49810;48.160;10.812;2022-11-14T01:04:42;95273.97;;;3.35;94.41
47750;BME280;49810;48.160;10.812;2022-11-14T01:07:29;95278.31;;;3.08;94.47
47750;BME280;49810;48.160;10.812;2022-11-14T01:10:15;95264.06;;;3.17;94.45
47750;BME280;49810;48.160;10.812;2022-11-14T01:13:02;95245.81;;;3.37;94.24
47750;BME280;49810;48.160;10.812;2022-11-14T01:15:50;95239.59;;;3.64;94.20
47750;BME280;49810;48.160;10.812;2022-11-14T01:18:39;95235.38;;;3.56;93.69
47750;BME280;49810;48.160;10.812;2022-11-14T01:21:26;95221.91;;;3.66;93.53
47750;BME280;49810;48.160;10.812;2022-11-14T01:24:13;95228.72;;;3.41;93.89
47750;BME280;49810;48.160;10.812;2022-11-14T01:27:00;95230.56;;;3.27;94.23
47750;BME280;49810;48.160;10.812;2022-11-14T01:29:47;95241.00;;;3.34;94.49
47750;BME280;49810;48.160;10.812;2022-11-14T01:32:35;95244.81;;;3.38;94.80
47750;BME280;49810;48.160;10.812;2022-11-14T01:35:22;95259.06;;;3.42;95.00
47750;BME280;49810;48.160;10.812;2022-11-14T01:38:11;95274.16;;;3.46;94.79
47750;BME280;49810;48.160;10.812;2022-11-14T01:40:59;95275.38;;;3.37;94.68
47750;BME280;49810;48.160;10.812;2022-11-14T01:43:46;95281.19;;;3.39;94.49
47750;BME280;49810;48.160;10.812;2022-11-14T01:46:35;95283.59;;;3.34;94.53
47750;BME280;49810;48.160;10.812;2022-11-14T01:49:25;95273.75;;;3.30;94.79
47750;BME280;49810;48.160;10.812;2022-11-14T01:52:17;95271.72;;;3.25;94.49
47750;BME280;49810;48.160;10.812;2022-11-14T01:55:07;95274.34;;;3.25;94.42
47750;BME280;49810;48.160;10.812;2022-11-14T01:57:55;95270.31;;;3.16;94.42
47750;BME280;49810;48.160;10.812;2022-11-14T02:00:43;95295.03;;;3.20;94.38
47750;BME280;49810;48.160;10.812;2022-11-14T02:03:30;95290.22;;;3.30;94.46
47750;BME280;49810;48.160;10.812;2022-11-14T02:06:23;95309.09;;;3.19;94.57
47750;BME280;49810;48.160;10.812;2022-11-14T02:09:11;95305.47;;;3.14;94.77
47750;BME280;49810;48.160;10.812;2022-11-14T02:12:01;95303.25;;;3.17;94.72
47750;BME280;49810;48.160;10.812;2022-11-14T02:14:51;95285.78;;;3.18;94.86
47750;BME280;49810;48.160;10.812;2022-11-14T02:17:41;95268.50;;;3.17;94.88
47750;BME280;49810;48.160;10.812;2022-11-14T02:20:34;95270.31;;;3.16;94.78
47750;BME280;49810;48.160;10.812;2022-11-14T02:23:25;95270.28;;;3.10;94.68
47750;BME280;49810;48.160;10.812;2022-11-14T02:26:15;95260.06;;;3.15;94.96
47750;BME280;49810;48.160;10.812;2022-11-14T02:29:04;95257.66;;;3.00;94.73
47750;BME280;49810;48.160;10.812;2022-11-14T02:31:51;95265.84;;;2.97;94.95
47750;BME280;49810;48.160;10.812;2022-11-14T02:34:38;95268.28;;;3.05;94.97
47750;BME280;49810;48.160;10.812;2022-11-14T02:37:26;95274.50;;;2.91;94.91
47750;BME280;49810;48.160;10.812;2022-11-14T02:40:13;95274.53;;;3.04;94.89
47750;BME280;49810;48.160;10.812;2022-11-14T02:42:59;95275.09;;;3.00;94.87
47750;BME280;49810;48.160;10.812;2022-11-14T02:45:46;95288.19;;;3.06;94.79
47750;BME280;49810;48.160;10.812;2022-11-14T02:48:33;95269.91;;;3.13;94.42
47750;BME280;49810;48.160;10.812;2022-11-14T02:51:20;95273.91;;;3.02;94.24
47750;BME280;49810;48.160;10.812;2022-11-14T02:54:08;95284.53;;;3.01;94.04
47750;BME280;49810;48.160;10.812;2022-11-14T02:56:54;95283.56;;;3.02;93.86
47750;BME280;49810;48.160;10.812;2022-11-14T02:59:41;95271.47;;;2.94;93.18
47750;BME280;49810;48.160;10.812;2022-11-14T03:02:28;95271.47;;;3.01;92.69
47750;BME280;49810;48.160;10.812;2022-11-14T03:05:14;95259.91;;;3.42;90.78
47750;BME280;49810;48.160;10.812;2022-11-14T03:08:01;95255.25;;;3.38;90.05
47750;BME280;49810;48.160;10.812;2022-11-14T03:10:49;95241.41;;;3.57;88.12
47750;BME280;49810;48.160;10.812;2022-11-14T03:13:36;95240.59;;;3.43;87.49
47750;BME280;49810;48.160;10.812;2022-11-14T03:16:23;95229.75;;;3.53;87.82
47750;BME280;49810;48.160;10.812;2022-11-14T03:19:09;95224.91;;;3.56;87.48
47750;BME280;49810;48.160;10.812;2022-11-14T03:21:56;95220.31;;;3.39;88.40
47750;BME280;49810;48.160;10.812;2022-11-14T03:24:44;95216.47;;;3.28;89.09
47750;BME280;49810;48.160;10.812;2022-11-14T03:27:32;95214.25;;;3.38;89.05
47750;BME280;49810;48.160;10.812;2022-11-14T03:30:18;95220.09;;;3.08;89.51
47750;BME280;49810;48.160;10.812;2022-11-14T03:33:05;95228.03;;;2.74;91.11
47750;BME280;49810;48.160;10.812;2022-11-14T03:35:52;95228.63;;;2.63;92.06
47750;BME280;49810;48.160;10.812;2022-11-14T03:38:39;95232.25;;;2.68;92.65
47750;BME280;49810;48.160;10.812;2022-11-14T03:41:28;95232.47;;;2.67;92.84
47750;BME280;49810;48.160;10.812;2022-11-14T03:44:17;95230.06;;;2.78;93.00
47750;BME280;49810;48.160;10.812;2022-11-14T03:47:05;95222.63;;;2.69;92.88
47750;BME280;49810;48.160;10.812;2022-11-14T03:49:51;95220.97;;;2.55;93.16
47750;BME280;49810;48.160;10.812;2022-11-14T03:52:38;95222.59;;;2.62;93.37
47750;BME280;49810;48.160;10.812;2022-11-14T03:55:25;95227.63;;;2.64;93.05
47750;BME280;49810;48.160;10.812;2022-11-14T03:58:11;95229.44;;;2.63;93.30
47750;BME280;49810;48.160;10.812;2022-11-14T04:00:59;95218.00;;;2.71;93.41
47750;BME280;49810;48.160;10.812;2022-11-14T04:03:48;95214.16;;;2.60;93.36
47750;BME280;49810;48.160;10.812;2022-11-14T04:06:35;95217.94;;;2.51;93.43
47750;BME280;49810;48.160;10.812;2022-11-14T04:09:21;95206.72;;;2.57;93.23
47750;BME280;49810;48.160;10.812;2022-11-14T04:12:08;95201.41;;;3.11;92.07
47750;BME280;49810;48.160;10.812;2022-11-14T04:15:00;95177.81;;;2.59;92.26
47750;BME280;49810;48.160;10.812;2022-11-14T04:17:48;95170.47;;;2.95;90.60
47750;BME280;49810;48.160;10.812;2022-11-14T04:20:34;95205.53;;;2.66;91.68
47750;BME280;49810;48.160;10.812;2022-11-14T04:23:21;95199.34;;;2.74;92.00
47750;BME280;49810;48.160;10.812;2022-11-14T04:26:08;95188.13;;;3.12;90.69
47750;BME280;49810;48.160;10.812;2022-11-14T04:28:54;95175.47;;;3.35;88.72
47750;BME280;49810;48.160;10.812;2022-11-14T04:31:41;95204.56;;;2.87;89.92
47750;BME280;49810;48.160;10.812;2022-11-14T04:34:30;95178.09;;;3.03;90.85
47750;BME280;49810;48.160;10.812;2022-11-14T04:37:16;95184.72;;;3.05;89.86
47750;BME280;49810;48.160;10.812;2022-11-14T04:40:04;95195.94;;;2.80;91.08
47750;BME280;49810;48.160;10.812;2022-11-14T04:42:51;95185.69;;;2.72;91.88
47750;BME280;49810;48.160;10.812;2022-11-14T04:45:38;95177.22;;;2.70;91.96
47750;BME280;49810;48.160;10.812;2022-11-14T04:48:24;95158.00;;;2.97;90.84
47750;BME280;49810;48.160;10.812;2022-11-14T04:51:13;95145.94;;;3.48;88.99
47750;BME280;49810;48.160;10.812;2022-11-14T04:53:59;95206.00;;;3.09;89.64
47750;BME280;49810;48.160;10.812;2022-11-14T04:56:46;95208.00;;;2.87;90.80
47750;BME280;49810;48.160;10.812;2022-11-14T04:59:33;95178.66;;;2.85;91.36
47750;BME280;49810;48.160;10.812;2022-11-14T05:02:20;95183.31;;;2.96;91.20
47750;BME280;49810;48.160;10.812;2022-11-14T05:05:07;95171.66;;;2.92;90.34
47750;BME280;49810;48.160;10.812;2022-11-14T05:07:56;95171.81;;;2.65;91.12
47750;BME280;49810;48.160;10.812;2022-11-14T05:10:43;95176.22;;;2.58;92.12
47750;BME280;49810;48.160;10.812;2022-11-14T05:13:30;95179.38;;;2.47;92.79
47750;BME280;49810;48.160;10.812;2022-11-14T05:16:17;95172.97;;;2.36;92.88
47750;BME280;49810;48.160;10.812;2022-11-14T05:19:04;95175.13;;;2.33;93.06
47750;BME280;49810;48.160;10.812;2022-11-14T05:21:50;95192.59;;;2.26;93.45
47750;BME280;49810;48.160;10.812;2022-11-14T05:24:39;95189.31;;;2.17;93.61
47750;BME280;49810;48.160;10.812;2022-11-14T05:27:25;95191.50;;;2.07;93.81
47750;BME280;49810;48.160;10.812;2022-11-14T05:30:12;95193.88;;;2.02;93.95
47750;BME280;49810;48.160;10.812;2022-11-14T05:32:58;95185.66;;;1.99;94.19
47750;BME280;49810;48.160;10.812;2022-11-14T05:35:45;95197.84;;;1.92;94.26
47750;BME280;49810;48.160;10.812;2022-11-14T05:38:32;95196.19;;;1.84;94.24
47750;BME280;49810;48.160;10.812;2022-11-14T05:41:20;95206.81;;;1.83;94.30
47750;BME280;49810;48.160;10.812;2022-11-14T05:44:07;95207.25;;;1.86;94.47
47750;BME280;49810;48.160;10.812;2022-11-14T05:46:54;95204.00;;;1.84;94.60
47750;BME280;49810;48.160;10.812;2022-11-14T05:49:40;95220.63;;;1.77;94.65
47750;BME280;49810;48.160;10.812;2022-11-14T05:52:27;95226.19;;;1.74;94.59
47750;BME280;49810;48.160;10.812;2022-11-14T05:55:16;95214.41;;;1.78;94.40
47750;BME280;49810;48.160;10.812;2022-11-14T05:58:10;95225.13;;;1.62;94.31
47750;BME280;49810;48.160;10.812;2022-11-14T06:01:01;95220.50;;;1.57;94.24
47750;BME280;49810;48.160;10.812;2022-11-14T06:03:48;95218.56;;;1.72;94.07
47750;BME280;49810;48.160;10.812;2022-11-14T06:06:34;95228.47;;;1.56;94.17
47750;BME280;49810;48.160;10.812;2022-11-14T06:09:21;95223.03;;;1.51;94.18
47750;BME280;49810;48.160;10.812;2022-11-14T06:12:08;95223.63;;;1.46;94.50
47750;BME280;49810;48.160;10.812;2022-11-14T06:14:56;95217.13;;;1.36;94.55
47750;BME280;49810;48.160;10.812;2022-11-14T06:17:43;95225.53;;;1.38;94.55
47750;BME280;49810;48.160;10.812;2022-11-14T06:20:30;95233.53;;;1.30;94.64
47750;BME280;49810;48.160;10.812;2022-11-14T06:23:16;95229.50;;;1.27;94.69
47750;BME280;49810;48.160;10.812;2022-11-14T06:26:14;95237.84;;;1.23;94.70
47750;BME280;49810;48.160;10.812;2022-11-14T06:29:06;95241.06;;;1.25;94.74
47750;BME280;49810;48.160;10.812;2022-11-14T06:31:54;95240.22;;;1.18;94.69
47750;BME280;49810;48.160;10.812;2022-11-14T06:34:41;95247.28;;;1.24;94.78
47750;BME280;49810;48.160;10.812;2022-11-14T06:37:27;95241.22;;;1.17;94.70
47750;BME280;49810;48.160;10.812;2022-11-14T06:40:18;95258.88;;;1.21;94.93
47750;BME280;49810;48.160;10.812;2022-11-14T06:43:05;95262.94;;;1.30;94.84
47750;BME280;49810;48.160;10.812;2022-11-14T06:45:52;95267.34;;;1.78;94.55
47750;BME280;49810;48.160;10.812;2022-11-14T06:48:44;95266.13;;;1.53;94.80
47750;BME280;49810;48.160;10.812;2022-11-14T06:51:30;95266.72;;;1.49;94.67
47750;BME280;49810;48.160;10.812;2022-11-14T06:54:17;95263.31;;;1.48;94.69
47750;BME280;49810;48.160;10.812;2022-11-14T06:57:07;95266.59;;;1.57;94.75
47750;BME280;49810;48.160;10.812;2022-11-14T06:59:54;95261.81;;;1.60;94.82
47750;BME280;49810;48.160;10.812;2022-11-14T07:02:44;95267.47;;;1.70;94.86
47750;BME280;49810;48.160;10.812;2022-11-14T07:05:34;95270.59;;;1.87;94.92
47750;BME280;49810;48.160;10.812;2022-11-14T07:08:20;95257.97;;;1.90;94.50
47750;BME280;49810;48.160;10.812;2022-11-14T07:11:09;95250.81;;;1.99;94.95
47750;BME280;49810;48.160;10.812;2022-11-14T07:13:57;95250.31;;;2.16;94.71
47750;BME280;49810;48.160;10.812;2022-11-14T07:16:44;95247.88;;;2.15;94.79
47750;BME280;49810;48.160;10.812;2022-11-14T07:19:31;95253.63;;;2.44;94.62
47750;BME280;49810;48.160;10.812;2022-11-14T07:22:20;95237.59;;;2.47;94.49
47750;BME280;49810;48.160;10.812;2022-11-14T07:25:08;95241.66;;;2.56;94.50
47750;BME280;49810;48.160;10.812;2022-11-14T07:27:56;95228.22;;;2.59;94.51
47750;BME280;49810;48.160;10.812;2022-11-14T07:30:43;95230.25;;;2.70;94.11
47750;BME280;49810;48.160;10.812;2022-11-14T07:33:30;95225.47;;;2.87;94.21
47750;BME280;49810;48.160;10.812;2022-11-14T07:36:17;95228.69;;;2.89;94.24
47750;BME280;49810;48.160;10.812;2022-11-14T07:39:05;95226.09;;;2.95;93.76
47750;BME280;49810;48.160;10.812;2022-11-14T07:41:52;95229.53;;;3.15;93.81
47750;BME280;49810;48.160;10.812;2022-11-14T07:44:40;95222.09;;;3.19;93.69
47750;BME280;49810;48.160;10.812;2022-11-14T07:47:27;95224.31;;;3.28;93.24
47750;BME280;49810;48.160;10.812;2022-11-14T07:50:13;95227.75;;;3.22;92.64
47750;BME280;49810;48.160;10.812;2022-11-14T07:53:05;95216.28;;;3.30;92.22
47750;BME280;49810;48.160;10.812;2022-11-14T07:55:53;95223.50;;;3.60;91.05
47750;BME280;49810;48.160;10.812;2022-11-14T07:58:41;95214.13;;;4.16;89.11
47750;BME280;49810;48.160;10.812;2022-11-14T08:01:28;95208.72;;;4.11;89.43
47750;BME280;49810;48.160;10.812;2022-11-14T08:04:15;95203.41;;;4.37;88.72
47750;BME280;49810;48.160;10.812;2022-11-14T08:07:02;95211.81;;;3.89;89.20
47750;BME280;49810;48.160;10.812;2022-11-14T08:09:49;95206.25;;;4.73;87.38
47750;BME280;49810;48.160;10.812;2022-11-14T08:12:37;95200.16;;;4.79;87.19
47750;BME280;49810;48.160;10.812;2022-11-14T08:15:24;95197.97;;;4.39;87.51
47750;BME280;49810;48.160;10.812;2022-11-14T08:18:11;95206.91;;;4.12;89.56
47750;BME280;49810;48.160;10.812;2022-11-14T08:20:58;95209.34;;;4.13;89.40
47750;BME280;49810;48.160;10.812;2022-11-14T08:23:48;95211.34;;;4.62;88.66
47750;BME280;49810;48.160;10.812;2022-11-14T08:26:36;95220.72;;;5.13;86.69
47750;BME280;49810;48.160;10.812;2022-11-14T08:29:28;95216.94;;;4.72;86.22
47750;BME280;49810;48.160;10.812;2022-11-14T08:32:15;95232.22;;;4.75;87.43
47750;BME280;49810;48.160;10.812;2022-11-14T08:35:04;95229.81;;;5.11;86.78
47750;BME280;49810;48.160;10.812;2022-11-14T08:37:52;95242.59;;;5.25;87.53
47750;BME280;49810;48.160;10.812;2022-11-14T08:40:38;95243.47;;;5.44;87.78
47750;BME280;49810;48.160;10.812;2022-11-14T08:43:25;95237.81;;;5.71;86.49
47750;BME280;49810;48.160;10.812;2022-11-14T08:46:13;95233.34;;;6.21;85.12
47750;BME280;49810;48.160;10.812;2022-11-14T08:49:00;95234.50;;;6.25;84.20
47750;BME280;49810;48.160;10.812;2022-11-14T08:51:50;95219.94;;;6.29;83.88
47750;BME280;49810;48.160;10.812;2022-11-14T08:54:41;95225.66;;;6.55;82.72
47750;BME280;49810;48.160;10.812;2022-11-14T08:57:27;95221.94;;;6.63;82.14
47750;BME280;49810;48.160;10.812;2022-11-14T09:00:15;95225.91;;;7.13;81.28
47750;BME280;49810;48.160;10.812;2022-11-14T09:03:07;95229.81;;;6.63;82.06
47750;BME280;49810;48.160;10.812;2022-11-14T09:05:55;95218.94;;;7.07;80.97
47750;BME280;49810;48.160;10.812;2022-11-14T09:08:41;95218.91;;;7.36;79.30
47750;BME280;49810;48.160;10.812;2022-11-14T09:11:28;95220.31;;;7.50;78.96
47750;BME280;49810;48.160;10.812;2022-11-14T09:14:15;95219.66;;;8.35;76.06
47750;BME280;49810;48.160;10.812;2022-11-14T09:17:03;95218.50;;;7.74;77.01
47750;BME280;49810;48.160;10.812;2022-11-14T09:19:51;95225.72;;;7.78;78.08
47750;BME280;49810;48.160;10.812;2022-11-14T09:22:38;95221.44;;;7.43;79.14
47750;BME280;49810;48.160;10.812;2022-11-14T09:25:27;95228.66;;;7.59;79.20
47750;BME280;49810;48.160;10.812;2022-11-14T09:28:14;95224.66;;;7.56;78.28
47750;BME280;49810;48.160;10.812;2022-11-14T09:31:02;95237.69;;;7.10;80.15
47750;BME280;49810;48.160;10.812;2022-11-14T09:33:51;95237.44;;;7.41;80.29
47750;BME280;49810;48.160;10.812;2022-11-14T09:36:39;95239.69;;;7.79;79.10
47750;BME280;49810;48.160;10.812;2022-11-14T09:39:29;95246.34;;;8.39;76.73
47750;BME280;49810;48.160;10.812;2022-11-14T09:42:25;95245.09;;;8.41;78.12
47750;BME280;49810;48.160;10.812;2022-11-14T09:45:15;95253.31;;;8.10;79.30
47750;BME280;49810;48.160;10.812;2022-11-14T09:48:06;95252.63;;;8.15;79.99
47750;BME280;49810;48.160;10.812;2022-11-14T09:51:04;95251.22;;;7.55;81.69
47750;BME280;49810;48.160;10.812;2022-11-14T09:53:59;95258.69;;;7.92;81.29
47750;BME280;49810;48.160;10.812;2022-11-14T09:56:50;95256.84;;;7.81;80.71
47750;BME280;49810;48.160;10.812;2022-11-14T09:59:37;95270.03;;;7.93;81.18
47750;BME280;49810;48.160;10.812;2022-11-14T10:02:36;95266.63;;;8.27;79.57
47750;BME280;49810;48.160;10.812;2022-11-14T10:05:36;95269.81;;;8.17;79.27
47750;BME280;49810;48.160;10.812;2022-11-14T10:08:46;95276.34;;;8.49;78.95
47750;BME280;49810;48.160;10.812;2022-11-14T10:11:39;95275.66;;;8.54;77.12
47750;BME280;49810;48.160;10.812;2022-11-14T10:14:44;95272.28;;;8.81;75.90
47750;BME280;49810;48.160;10.812;2022-11-14T10:17:55;95266.88;;;8.88;75.20
47750;BME280;49810;48.160;10.812;2022-11-14T10:20:50;95268.50;;;8.77;75.38
47750;BME280;49810;48.160;10.812;2022-11-14T10:23:47;95280.00;;;9.11;75.24
47750;BME280;49810;48.160;10.812;2022-11-14T10:26:41;95286.78;;;9.35;74.42
47750;BME280;49810;48.160;10.812;2022-11-14T10:29:51;95289.03;;;8.75;76.51
47750;BME280;49810;48.160;10.812;2022-11-14T10:33:01;95288.47;;;9.13;75.69
47750;BME280;49810;48.160;10.812;2022-11-14T10:35:55;95295.03;;;9.66;73.96
47750;BME280;49810;48.160;10.812;2022-11-14T10:38:49;95292.69;;;9.70;74.46
47750;BME280;49810;48.160;10.812;2022-11-14T10:41:41;95307.66;;;9.81;74.26
47750;BME280;49810;48.160;10.812;2022-11-14T10:45:01;95306.06;;;9.80;74.27
47750;BME280;49810;48.160;10.812;2022-11-14T10:47:51;95313.38;;;9.89;75.07
47750;BME280;49810;48.160;10.812;2022-11-14T10:50:44;95315.06;;;9.95;75.86
47750;BME280;49810;48.160;10.812;2022-11-14T10:53:41;95314.75;;;9.47;77.53
47750;BME280;49810;48.160;10.812;2022-11-14T10:56:29;95315.59;;;9.81;77.94
47750;BME280;49810;48.160;10.812;2022-11-14T10:59:17;95313.28;;;9.84;77.58
47750;BME280;49810;48.160;10.812;2022-11-14T11:02:05;95308.19;;;9.50;78.19
47750;BME280;49810;48.160;10.812;2022-11-14T11:04:52;95305.47;;;9.33;78.95
47750;BME280;49810;48.160;10.812;2022-11-14T11:07:43;95296.09;;;9.98;75.27
47750;BME280;49810;48.160;10.812;2022-11-14T11:11:11;95296.06;;;10.10;73.10
47750;BME280;49810;48.160;10.812;2022-11-14T11:14:18;95294.63;;;9.74;73.96
47750;BME280;49810;48.160;10.812;2022-11-14T11:17:28;95286.47;;;9.76;74.86
47750;BME280;49810;48.160;10.812;2022-11-14T11:20:30;95292.44;;;10.32;73.35
47750;BME280;49810;48.160;10.812;2022-11-14T11:23:21;95292.41;;;10.65;72.22
47750;BME280;49810;48.160;10.812;2022-11-14T11:26:16;95294.41;;;10.58;72.47
47750;BME280;49810;48.160;10.812;2022-11-14T11:29:06;95283.44;;;11.09;70.30
47750;BME280;49810;48.160;10.812;2022-11-14T11:31:56;95281.22;;;11.23;69.65
47750;BME280;49810;48.160;10.812;2022-11-14T11:34:44;95282.47;;;11.64;68.20
47750;BME280;49810;48.160;10.812;2022-11-14T11:37:35;95285.81;;;12.12;67.75
47750;BME280;49810;48.160;10.812;2022-11-14T11:40:27;95278.94;;;12.48;65.67
47750;BME280;49810;48.160;10.812;2022-11-14T11:43:24;95269.69;;;13.98;61.10
47750;BME280;49810;48.160;10.812;2022-11-14T11:46:33;95269.94;;;13.92;60.88
47750;BME280;49810;48.160;10.812;2022-11-14T11:49:33;95271.28;;;13.79;62.31
47750;BME280;49810;48.160;10.812;2022-11-14T11:52:27;95269.41;;;13.75;62.26
47750;BME280;49810;48.160;10.812;2022-11-14T11:55:19;95271.84;;;14.01;61.61
47750;BME280;49810;48.160;10.812;2022-11-14T11:58:11;95266.50;;;13.81;62.79
47750;BME280;49810;48.160;10.812;2022-11-14T12:01:02;95273.66;;;13.71;62.90
47750;BME280;49810;48.160;10.812;2022-11-14T12:03:51;95277.06;;;13.46;63.89
47750;BME280;49810;48.160;10.812;2022-11-14T12:06:43;95272.91;;;13.04;62.64
47750;BME280;49810;48.160;10.812;2022-11-14T12:09:35;95275.47;;;12.89;60.77
47750;BME280;49810;48.160;10.812;2022-11-14T12:13:12;95279.03;;;12.63;60.60
47750;BME280;49810;48.160;10.812;2022-11-14T12:16:23;95268.47;;;12.73;61.69
47750;BME280;49810;48.160;10.812;2022-11-14T12:19:37;95259.97;;;12.66;60.89
47750;BME280;49810;48.160;10.812;2022-11-14T12:22:40;95257.16;;;12.46;62.10
47750;BME280;49810;48.160;10.812;2022-11-14T12:25:38;95263.91;;;12.58;61.79
47750;BME280;49810;48.160;10.812;2022-11-14T12:28:49;95261.56;;;12.30;62.82
47750;BME280;49810;48.160;10.812;2022-11-14T12:31:44;95257.53;;;12.23;62.72
47750;BME280;49810;48.160;10.812;2022-11-14T12:34:33;95232.44;;;12.35;62.85
47750;BME280;49810;48.160;10.812;2022-11-14T12:37:30;95240.63;;;12.29;63.66
47750;BME280;49810;48.160;10.812;2022-11-14T12:40:28;95240.13;;;12.37;61.60
47750;BME280;49810;48.160;10.812;2022-11-14T12:43:29;95245.22;;;11.75;63.46
47750;BME280;49810;48.160;10.812;2022-11-14T12:46:21;95246.88;;;12.13;63.89
47750;BME280;49810;48.160;10.812;2022-11-14T12:52:42;95237.78;;;12.40;61.92
47750;BME280;49810;48.160;10.812;2022-11-14T12:55:53;95233.69;;;12.64;62.82
47750;BME280;49810;48.160;10.812;2022-11-14T12:59:09;95240.34;;;12.72;62.32
47750;BME280;49810;48.160;10.812;2022-11-14T13:02:26;95237.34;;;13.10;61.86
47750;BME280;49810;48.160;10.812;2022-11-14T13:05:35;95239.78;;;13.21;61.89
47750;BME280;49810;48.160;10.812;2022-11-14T13:08:45;95236.88;;;13.23;62.13
47750;BME280;49810;48.160;10.812;2022-11-14T13:11:40;95238.09;;;12.95;61.71
47750;BME280;49810;48.160;10.812;2022-11-14T13:14:49;95234.47;;;13.16;62.78
47750;BME280;49810;48.160;10.812;2022-11-14T13:18:13;95238.22;;;13.30;62.53
47750;BME280;49810;48.160;10.812;2022-11-14T13:21:23;95238.75;;;13.27;62.93
47750;BME280;49810;48.160;10.812;2022-11-14T13:27:48;95239.03;;;13.41;62.43
47750;BME280;49810;48.160;10.812;2022-11-14T13:31:15;95244.59;;;13.34;63.23
47750;BME280;49810;48.160;10.812;2022-11-14T13:34:28;95234.91;;;12.98;65.83
47750;BME280;49810;48.160;10.812;2022-11-14T13:37:33;95237.34;;;13.05;66.15
47750;BME280;49810;48.160;10.812;2022-11-14T13:40:26;95245.41;;;12.73;67.74
47750;BME280;49810;48.160;10.812;2022-11-14T13:43:24;95243.41;;;12.49;68.52
47750;BME280;49810;48.160;10.812;2022-11-14T13:46:26;95251.41;;;12.59;67.89
47750;BME280;49810;48.160;10.812;2022-11-14T13:49:31;95250.47;;;12.33;69.07
47750;BME280;49810;48.160;10.812;2022-11-14T13:52:22;95234.78;;;12.27;68.80
47750;BME280;49810;48.160;10.812;2022-11-14T13:55:21;95238.53;;;12.36;68.06
47750;BME280;49810;48.160;10.812;2022-11-14T13:58:19;95234.03;;;12.83;65.74
47750;BME280;49810;48.160;10.812;2022-11-14T14:01:21;95233.47;;;12.29;67.55
47750;BME280;49810;48.160;10.812;2022-11-14T14:04:22;95242.91;;;12.15;67.79
47750;BME280;49810;48.160;10.812;2022-11-14T14:07:22;95247.97;;;12.17;68.41
47750;BME280;49810;48.160;10.812;2022-11-14T14:10:23;95241.22;;;11.99;69.38
47750;BME280;49810;48.160;10.812;2022-11-14T14:13:23;95229.88;;;12.09;69.25
47750;BME280;49810;48.160;10.812;2022-11-14T14:16:17;95235.31;;;11.92;70.00
47750;BME280;49810;48.160;10.812;2022-11-14T14:19:11;95238.81;;;11.98;69.70
47750;BME280;49810;48.160;10.812;2022-11-14T14:22:16;95240.00;;;11.59;71.28
47750;BME280;49810;48.160;10.812;2022-11-14T14:25:14;95231.13;;;11.43;71.90
47750;BME280;49810;48.160;10.812;2022-11-14T14:28:09;95241.28;;;11.25;73.65
47750;BME280;49810;48.160;10.812;2022-11-14T14:31:03;95244.34;;;11.17;74.39
47750;BME280;49810;48.160;10.812;2022-11-14T14:33:56;95233.91;;;11.05;74.36
47750;BME280;49810;48.160;10.812;2022-11-14T14:36:48;95241.03;;;11.04;74.27
47750;BME280;49810;48.160;10.812;2022-11-14T14:39:35;95239.97;;;11.05;74.07
47750;BME280;49810;48.160;10.812;2022-11-14T14:42:23;95235.97;;;11.03;73.97
47750;BME280;49810;48.160;10.812;2022-11-14T14:45:20;95243.28;;;10.91;74.99
47750;BME280;49810;48.160;10.812;2022-11-14T14:48:12;95238.09;;;10.79;75.60
47750;BME280;49810;48.160;10.812;2022-11-14T14:51:02;95237.75;;;10.93;75.30
47750;BME280;49810;48.160;10.812;2022-11-14T14:53:51;95235.47;;;10.79;75.51
47750;BME280;49810;48.160;10.812;2022-11-14T14:56:38;95236.94;;;10.70;76.04
47750;BME280;49810;48.160;10.812;2022-11-14T14:59:27;95232.19;;;10.72;76.01
47750;BME280;49810;48.160;10.812;2022-11-14T15:02:15;95223.53;;;10.77;75.27
47750;BME280;49810;48.160;10.812;2022-11-14T15:05:04;95219.53;;;10.74;75.32
47750;BME280;49810;48.160;10.812;2022-11-14T15:07:55;95225.47;;;10.65;76.03
47750;BME280;49810;48.160;10.812;2022-11-14T15:10:43;95226.47;;;10.59;76.23